This is the latest recevied weather packets stored in our database for station/object IZ1BLA-10. If no packets are shown the sender has not sent any weather packets the latest 10 day(s).
| Time | Temp. | Humidity | Pressure | Rain* | Wind** | Luminosity | Snow |
|---|---|---|---|---|---|---|---|
| 1777638545 | 16.11° C | 38% | 1027.3 hPa | - | - | - | - |
| 1777637946 | 16.11° C | 36% | 1027.3 hPa | - | - | - | - |
| 1777637345 | 16.67° C | 36% | 1027.2 hPa | - | - | - | - |
| 1777636746 | 16.11° C | 37% | 1027.3 hPa | - | - | - | - |
| 1777636145 | 15° C | 37% | 1027.7 hPa | - | - | - | - |
| 1777635545 | 16.11° C | 37% | 1027.3 hPa | - | - | - | - |
| 1777634945 | 16.11° C | 35% | 1027.3 hPa | - | - | - | - |
| 1777634345 | 15.56° C | 39% | 1027.6 hPa | - | - | - | - |
| 1777633745 | 15.56° C | 40% | 1027.6 hPa | - | - | - | - |
| 1777633145 | 15.56° C | 43% | 1027.7 hPa | - | - | - | - |
| 1777632545 | 15° C | 42% | 1027.9 hPa | - | - | - | - |
| 1777631945 | 15° C | 43% | 1027.8 hPa | - | - | - | - |
| 1777631345 | 13.89° C | 44% | 1028.1 hPa | - | - | - | - |
| 1777630745 | 15° C | 49% | 1027.9 hPa | - | - | - | - |
| 1777630145 | 13.89° C | 50% | 1028.1 hPa | - | - | - | - |
| 1777629547 | 13.89° C | 52% | 1028 hPa | - | - | - | - |
| 1777628945 | 14.44° C | 53% | 1027.9 hPa | - | - | - | - |
| 1777628345 | 14.44° C | 55% | 1027.8 hPa | - | - | - | - |
| 1777627745 | 13.89° C | 53% | 1028 hPa | - | - | - | - |
| 1777627146 | 14.44° C | 55% | 1027.7 hPa | - | - | - | - |
| 1777625945 | 15° C | 58% | 1027.5 hPa | - | - | - | - |
| 1777625345 | 15° C | 60% | 1027.4 hPa | - | - | - | - |
| 1777624745 | 13.89° C | 63% | 1027.6 hPa | - | - | - | - |
| 1777624145 | 13.89° C | 60% | 1027.5 hPa | - | - | - | - |
| 1777623545 | 13.89° C | 63% | 1027.5 hPa | - | - | - | - |
* Rain since midnight (hover to see other rain measurements)
** Current wind speed in m/s (hover to see current wind gust speed)